createdAt,value
2023-09-04T00:01:08.666Z,67.73105
2023-09-04T00:06:10.145Z,55.4648
2023-09-04T00:11:11.648Z,41.24305
2023-09-04T00:16:13.259Z,31.05085
2023-09-04T00:21:14.787Z,22.34
2023-09-04T00:26:16.192Z,21.0956
2023-09-04T00:31:17.694Z,26.42875
2023-09-04T00:36:19.236Z,21.45115
2023-09-04T00:41:20.607Z,21.0956
2023-09-04T00:46:22.033Z,19.49565
2023-09-04T00:51:23.746Z,17.30315
2023-09-04T00:56:25.183Z,20.7993
2023-09-04T01:01:26.641Z,23.76215
2023-09-04T01:06:28.022Z,23.7029
2023-09-04T01:11:29.471Z,22.0437
2023-09-04T01:16:31.014Z,21.0363
2023-09-04T01:21:32.478Z,25.3621
2023-09-04T01:26:33.872Z,21.3326
2023-09-04T01:31:35.246Z,16.11795
2023-09-04T01:36:36.684Z,16.8883
2023-09-04T01:41:38.581Z,18.2512
2023-09-04T01:46:40.362Z,15.3476
2023-09-04T01:51:41.749Z,11.85145
2023-09-04T01:56:43.117Z,8.533
2023-09-04T02:01:44.565Z,7.5849
2023-09-04T02:06:47.011Z,6.69605
2023-09-04T02:11:48.466Z,5.45165
2023-09-04T02:16:49.858Z,3.8517
2023-09-04T02:21:51.287Z,2.4888
2023-09-04T02:26:52.752Z,1.71845
2023-09-04T02:31:54.215Z,1.54065
2023-09-04T02:36:55.684Z,1.3463
2023-09-04T02:41:57.063Z,1.16185
2023-09-04T02:46:58.465Z,0
2023-09-04T02:51:59.928Z,0
2023-09-04T02:57:01.541Z,0
2023-09-04T03:02:02.972Z,0
2023-09-04T03:07:04.439Z,0
2023-09-04T03:12:05.913Z,0
2023-09-04T03:17:07.328Z,0
2023-09-04T03:22:08.717Z,0
2023-09-04T03:27:10.262Z,0
2023-09-04T03:32:11.738Z,0
2023-09-04T03:37:13.252Z,0
2023-09-04T03:42:14.695Z,0
2023-09-04T03:47:16.094Z,0
2023-09-04T03:52:17.474Z,0
2023-09-04T03:57:18.986Z,0
2023-09-04T04:02:20.440Z,0
2023-09-04T04:07:21.873Z,0
2023-09-04T04:12:23.389Z,0
2023-09-04T04:17:24.873Z,0
2023-09-04T04:22:26.252Z,0
2023-09-04T04:27:27.758Z,0
2023-09-04T04:32:29.215Z,0
2023-09-04T04:37:30.685Z,0
2023-09-04T04:42:32.180Z,0
2023-09-04T04:47:33.584Z,0
2023-09-04T04:52:34.974Z,0
2023-09-04T04:57:36.489Z,0
2023-09-04T05:02:37.978Z,0
2023-09-04T05:07:39.388Z,0
2023-09-04T05:12:41.025Z,0
2023-09-04T05:17:42.541Z,0
2023-09-04T05:22:44.287Z,0
2023-09-04T05:27:45.683Z,0
2023-09-04T05:32:47.118Z,0
2023-09-04T05:37:48.699Z,0
2023-09-04T05:42:50.132Z,0
2023-09-04T05:47:51.650Z,0
2023-09-04T05:52:53.224Z,0
2023-09-04T05:57:54.583Z,0
2023-09-04T06:02:56.068Z,0
2023-09-04T06:07:57.634Z,0
2023-09-04T06:12:59.105Z,0
2023-09-04T06:18:00.718Z,0
2023-09-04T06:23:02.207Z,0
2023-09-04T06:28:03.697Z,0
2023-09-04T06:33:05.179Z,0
2023-09-04T06:38:06.606Z,0
2023-09-04T06:43:08.000Z,0
2023-09-04T06:48:09.659Z,0
2023-09-04T06:53:11.163Z,0
2023-09-04T06:58:12.664Z,0
2023-09-04T07:03:14.199Z,0
2023-09-04T07:08:15.587Z,0
2023-09-04T07:13:17.033Z,0
2023-09-04T07:18:18.583Z,0
2023-09-04T07:23:21.946Z,0
2023-09-04T07:28:31.452Z,0
2023-09-04T07:33:33.084Z,0
2023-09-04T07:38:34.620Z,0
2023-09-04T07:43:36.203Z,0
2023-09-04T07:48:37.553Z,0
2023-09-04T07:53:39.038Z,0
2023-09-04T07:58:40.579Z,0
2023-09-04T08:03:42.006Z,0
2023-09-04T08:08:43.381Z,0
2023-09-04T08:13:44.889Z,0
2023-09-04T08:18:46.381Z,0
2023-09-04T08:23:47.819Z,0
2023-09-04T08:28:49.221Z,0
2023-09-04T08:33:50.721Z,0
2023-09-04T08:38:52.164Z,0
2023-09-04T08:43:53.596Z,0
2023-09-04T08:48:54.960Z,0
2023-09-04T08:53:58.376Z,0
2023-09-04T08:59:02.130Z,0
2023-09-04T09:04:03.751Z,0
2023-09-04T09:09:05.241Z,0
2023-09-04T09:14:06.848Z,0
2023-09-04T09:19:08.449Z,0
2023-09-04T09:24:09.841Z,0
2023-09-04T09:29:11.376Z,0
2023-09-04T09:34:12.836Z,0
2023-09-04T09:39:14.337Z,0
2023-09-04T09:44:15.760Z,0
2023-09-04T09:49:17.203Z,0
2023-09-04T09:54:18.719Z,0
2023-09-04T09:59:20.123Z,0
2023-09-04T10:04:21.552Z,0
2023-09-04T10:09:22.941Z,0
2023-09-04T10:14:24.375Z,0
2023-09-04T10:19:25.765Z,0
2023-09-04T10:24:27.143Z,0
2023-09-04T10:29:28.919Z,0
2023-09-04T10:34:30.301Z,0
2023-09-04T10:39:31.793Z,0
2023-09-04T10:44:33.277Z,0
2023-09-04T10:49:34.664Z,0
2023-09-04T10:54:36.043Z,0
2023-09-04T10:59:37.836Z,0
2023-09-04T11:04:39.197Z,0
2023-09-04T11:09:40.646Z,0
2023-09-04T11:14:42.043Z,0
2023-09-04T11:19:43.639Z,0
2023-09-04T11:24:45.033Z,0
2023-09-04T11:29:46.385Z,0
2023-09-04T11:34:47.901Z,0
2023-09-04T11:39:49.580Z,0
2023-09-04T11:44:51.004Z,0
2023-09-04T11:49:52.360Z,0
2023-09-04T11:54:53.768Z,0
2023-09-04T11:59:55.304Z,0
2023-09-04T12:04:56.894Z,0
2023-09-04T12:09:58.257Z,0
2023-09-04T12:14:59.678Z,0
2023-09-04T12:20:01.090Z,0
2023-09-04T12:25:02.541Z,0
2023-09-04T12:30:03.950Z,0
2023-09-04T12:35:05.474Z,0
2023-09-04T12:40:06.985Z,0
2023-09-04T12:45:08.478Z,0
2023-09-04T12:50:09.970Z,0
2023-09-04T12:55:11.379Z,0
2023-09-04T13:00:12.788Z,1.16185
2023-09-04T13:05:14.188Z,0.5333
2023-09-04T13:10:15.708Z,1.6592
2023-09-04T13:15:17.109Z,1.6592
2023-09-04T13:20:18.484Z,2.1925
2023-09-04T13:25:20.097Z,3.79245
2023-09-04T13:30:21.649Z,3.6147
2023-09-04T13:35:23.124Z,5.3852
2023-09-04T13:40:24.736Z,7.7089
2023-09-04T13:45:26.148Z,4.96115
2023-09-04T13:50:27.647Z,10.90335
2023-09-04T13:55:29.282Z,16.0587
2023-09-04T14:00:30.867Z,22.2807
2023-09-04T14:05:32.309Z,27.2583
2023-09-04T14:10:33.941Z,37.7468
2023-09-04T14:15:37.179Z,45.7465
2023-09-04T14:20:39.884Z,55.1091
2023-09-04T14:25:41.263Z,53.56845
2023-09-04T14:30:42.645Z,52.62035
2023-09-04T14:35:44.057Z,48.11685
2023-09-04T14:40:45.610Z,47.82055
2023-09-04T14:45:56.604Z,52.56115
2023-09-04T14:51:09.521Z,56.2351
2023-09-04T14:56:10.890Z,91.13755
2023-09-04T15:01:12.508Z,253.502
2023-09-04T15:06:14.146Z,112.05545
2023-09-04T15:11:17.056Z,85.8637
2023-09-04T15:16:18.691Z,79.34545
2023-09-04T15:21:20.188Z,62.9312
2023-09-04T15:26:21.608Z,64.8867
2023-09-04T15:31:23.143Z,69.15325
2023-09-04T15:36:24.568Z,69.6273
2023-09-04T15:41:25.985Z,150.03935
2023-09-04T15:46:27.542Z,70.81245
2023-09-04T15:51:28.959Z,86.3379
2023-09-04T15:56:30.362Z,130.42535
2023-09-04T16:01:31.905Z,95.38755
2023-09-04T16:06:33.386Z,108.32245
2023-09-04T16:11:34.901Z,282.2422
2023-09-04T16:16:36.346Z,136.4697
2023-09-04T16:21:38.046Z,187.60865
2023-09-04T16:26:39.654Z,339.84
2023-09-04T16:31:41.169Z,371.42405
2023-09-04T16:36:42.557Z,437.73275
2023-09-04T16:41:43.960Z,289.05685
2023-09-04T16:46:45.460Z,410.119
2023-09-04T16:51:56.056Z,413.61515
2023-09-04T16:56:58.909Z,462.56145
2023-09-04T17:02:00.405Z,392.99375
2023-09-04T17:07:01.819Z,351.27675
2023-09-04T17:12:03.376Z,464.9911
2023-09-04T17:17:04.749Z,441.28825
2023-09-04T17:22:06.433Z,411.8967
2023-09-04T17:27:08.017Z,423.985
2023-09-04T17:32:09.693Z,281.70895
2023-09-04T17:37:11.091Z,482.17545
2023-09-04T17:42:12.570Z,488.8715
2023-09-04T17:47:14.041Z,232.9404
2023-09-04T17:52:15.531Z,547.00265
2023-09-04T17:57:16.904Z,193.7713
2023-09-04T18:02:18.459Z,200.88215
2023-09-04T18:07:19.899Z,158.9873
2023-09-04T18:12:21.350Z,230.80715
2023-09-04T18:17:23.093Z,412.7264
2023-09-04T18:22:24.562Z,486.20525
2023-09-04T18:27:26.438Z,463.9838
2023-09-04T18:32:27.847Z,430.08885
2023-09-04T18:37:29.566Z,470.8578
2023-09-04T18:42:31.055Z,472.1614
2023-09-04T18:47:32.582Z,476.2501
2023-09-04T18:52:34.180Z,483.12395
2023-09-04T18:58:47.888Z,457.4661
2023-09-04T19:03:49.312Z,249.29165
2023-09-04T19:08:50.842Z,467.3617
2023-09-04T19:13:52.406Z,552.27715
2023-09-04T19:18:53.708Z,168.3255
2023-09-04T19:23:55.109Z,169.5805
2023-09-04T19:28:56.537Z,402.9496
2023-09-04T19:33:57.921Z,579.9507
2023-09-04T19:38:59.300Z,547.952
2023-09-04T19:44:00.814Z,397.32025
2023-09-04T19:49:02.187Z,165.57775
2023-09-04T19:54:03.617Z,166.2984
2023-09-04T19:59:05.033Z,172.737
2023-09-04T20:04:06.699Z,208.6452
2023-09-04T20:09:08.051Z,607.03085
2023-09-04T20:14:09.449Z,192.93335
2023-09-04T20:19:10.834Z,599.14955
2023-09-04T20:24:12.358Z,270.5691
2023-09-04T20:29:13.897Z,204.20195
2023-09-04T20:34:15.383Z,621.6676
2023-09-04T20:39:16.815Z,189.18735
2023-09-04T20:44:18.271Z,271.07575
2023-09-04T20:49:19.719Z,613.13515
2023-09-04T20:54:21.184Z,569.9366
2023-09-04T20:59:22.585Z,350.9814
2023-09-04T21:04:24.173Z,180.7008
2023-09-04T21:09:25.531Z,324.6115
2023-09-04T21:14:26.975Z,578.5291
2023-09-04T21:19:28.334Z,538.41215
2023-09-04T21:24:29.752Z,578.41065
2023-09-04T21:29:31.195Z,573.4925
2023-09-04T21:34:32.665Z,518.739
2023-09-04T21:39:34.022Z,573.72955
2023-09-04T21:44:35.428Z,591.03265
2023-09-04T21:49:36.828Z,629.7276
2023-09-04T21:54:38.405Z,618.94285
2023-09-04T21:59:39.882Z,585.6996
2023-09-04T22:04:41.395Z,579.5368
2023-09-04T22:09:42.760Z,514.94635
2023-09-04T22:14:44.283Z,175.64835
2023-09-04T22:19:45.652Z,564.1887
2023-09-04T22:24:47.126Z,241.52575
2023-09-04T22:29:48.540Z,250.8947
2023-09-04T22:34:49.931Z,163.0696
2023-09-04T22:39:51.535Z,151.9493
2023-09-04T22:44:52.901Z,151.7477
2023-09-04T22:49:54.373Z,176.8862
2023-09-04T22:54:55.763Z,514.2934
2023-09-04T22:59:57.145Z,506.2938
2023-09-04T23:04:58.683Z,468.1913
2023-09-04T23:10:00.186Z,442.5922
2023-09-04T23:15:01.592Z,435.00725
2023-09-04T23:20:03.111Z,394.653
2023-09-04T23:25:04.553Z,384.9939
2023-09-04T23:30:06.126Z,368.28335
2023-09-04T23:35:07.544Z,355.60225
2023-09-04T23:40:08.891Z,335.39535
2023-09-04T23:45:10.386Z,316.55155
2023-09-04T23:50:11.799Z,310.27015
2023-09-04T23:55:13.255Z,292.0781
